Time;durP1;ratioP1;P1;durP2;ratioP2;P2;SDS_P1;SDS_P2;PMS_P1;PMS_P2;Temp;Humidity;BMP_temperature;BMP_pressure;BME280_temperature;BME280_humidity;BME280_pressure;Samples;Min_cycle;Max_cycle;Signal;HPM_P1;HPM_P2
2023/08/15 00:01:28;;;;;;;4.07;2.13;;;;;;;;;;5064199;28;20021;-72
2023/08/15 00:03:54;;;;;;;2.80;2.30;;;;;;;;;;5063796;28;20066;-71
2023/08/15 00:06:21;;;;;;;8.15;2.75;;;;;;;;;;5063426;28;20131;-71
2023/08/15 00:08:53;;;;;;;5.97;2.33;;;;;;;;;;5059543;28;20604;-72
2023/08/15 00:11:19;;;;;;;4.88;2.13;;;;;;;;;;5053893;28;20028;-71
2023/08/15 00:13:45;;;;;;;5.13;2.17;;;;;;;;;;5062381;28;20038;-71
2023/08/15 00:16:12;;;;;;;5.97;2.20;;;;;;;;;;5060179;28;20063;-72
2023/08/15 00:18:38;;;;;;;7.00;2.90;;;;;;;;;;5059687;28;20460;-72
2023/08/15 00:21:04;;;;;;;4.45;2.45;;;;;;;;;;5060028;28;20021;-72
2023/08/15 00:23:30;;;;;;;3.25;2.30;;;;;;;;;;5061282;28;20842;-71
2023/08/15 00:25:56;;;;;;;6.80;2.38;;;;;;;;;;5057584;28;20450;-71
2023/08/15 00:28:22;;;;;;;3.08;2.40;;;;;;;;;;5060850;28;20040;-71
2023/08/15 00:30:48;;;;;;;4.03;2.47;;;;;;;;;;5072245;28;20067;-71
2023/08/15 00:33:14;;;;;;;5.85;2.53;;;;;;;;;;5057967;28;20473;-71
2023/08/15 00:35:42;;;;;;;3.15;2.47;;;;;;;;;;5062071;28;20161;-71
2023/08/15 00:38:08;;;;;;;4.80;2.50;;;;;;;;;;5059211;28;20039;-72
2023/08/15 00:40:34;;;;;;;5.95;2.40;;;;;;;;;;5060074;28;20492;-71
2023/08/15 00:43:00;;;;;;;5.07;2.70;;;;;;;;;;5057662;28;20059;-71
2023/08/15 00:45:27;;;;;;;4.53;2.25;;;;;;;;;;5057611;28;20096;-72
2023/08/15 00:47:53;;;;;;;4.43;2.40;;;;;;;;;;5056384;28;20446;-72
2023/08/15 00:50:19;;;;;;;2.42;2.13;;;;;;;;;;5062524;28;20028;-71
2023/08/15 00:52:45;;;;;;;6.22;2.60;;;;;;;;;;5061516;28;20033;-72
2023/08/15 00:55:11;;;;;;;4.65;2.67;;;;;;;;;;5051724;28;20052;-71
2023/08/15 00:57:37;;;;;;;2.78;2.28;;;;;;;;;;5051918;28;20388;-72
2023/08/15 01:00:04;;;;;;;4.32;2.40;;;;;;;;;;5059446;28;20035;-72
2023/08/15 01:02:30;;;;;;;3.67;2.42;;;;;;;;;;5058601;28;20036;-72
2023/08/15 01:04:56;;;;;;;2.80;2.13;;;;;;;;;;5051472;28;20448;-72
2023/08/15 01:07:23;;;;;;;4.10;2.45;;;;;;;;;;5057755;28;20048;-72
2023/08/15 01:09:49;;;;;;;5.82;2.58;;;;;;;;;;5071434;28;20032;-73
2023/08/15 01:12:30;;;;;;;6.05;2.60;;;;;;;;;;5058998;28;20392;-71
2023/08/15 01:15:00;;;;;;;3.97;2.40;;;;;;;;;;5054421;28;20453;-72
2023/08/15 01:17:31;;;;;;;25.08;3.08;;;;;;;;;;5060861;28;20040;-72
2023/08/15 01:19:58;;;;;;;3.70;2.40;;;;;;;;;;5055728;28;20108;-71
2023/08/15 01:22:27;;;;;;;5.65;2.40;;;;;;;;;;5068653;28;20104;-72
2023/08/15 01:24:54;;;;;;;4.35;2.75;;;;;;;;;;5053622;28;20389;-72
2023/08/15 01:27:20;;;;;;;4.38;2.60;;;;;;;;;;5062242;28;20115;-72
2023/08/15 01:29:47;;;;;;;4.47;2.55;;;;;;;;;;5066867;28;20416;-72
2023/08/15 01:32:13;;;;;;;2.95;2.33;;;;;;;;;;5072420;28;20024;-71
2023/08/15 01:34:43;;;;;;;7.32;2.83;;;;;;;;;;5060867;28;20034;-71
2023/08/15 01:37:12;;;;;;;3.47;2.50;;;;;;;;;;5065479;28;20519;-71
2023/08/15 01:39:40;;;;;;;5.35;3.25;;;;;;;;;;5056851;28;20109;-71
2023/08/15 01:42:07;;;;;;;5.03;2.55;;;;;;;;;;5061976;28;20028;-71
2023/08/15 01:44:34;;;;;;;4.47;2.40;;;;;;;;;;5062201;28;20081;-71
2023/08/15 01:47:00;;;;;;;6.10;2.40;;;;;;;;;;5056339;28;20016;-71
2023/08/15 01:49:26;;;;;;;4.55;2.40;;;;;;;;;;5044757;28;20499;-72
2023/08/15 01:51:54;;;;;;;5.00;2.80;;;;;;;;;;5061795;28;20442;-71
2023/08/15 01:54:20;;;;;;;4.43;2.72;;;;;;;;;;5066020;28;20795;-72
2023/08/15 01:56:46;;;;;;;5.95;2.88;;;;;;;;;;5053874;28;20025;-72
2023/08/15 01:59:12;;;;;;;4.80;2.83;;;;;;;;;;5058552;28;20036;-71
2023/08/15 02:01:38;;;;;;;4.00;2.63;;;;;;;;;;5054258;28;20070;-72
2023/08/15 02:04:04;;;;;;;9.25;3.22;;;;;;;;;;5062764;28;20365;-72
2023/08/15 02:06:30;;;;;;;4.47;2.58;;;;;;;;;;5045657;28;20531;-72
2023/08/15 02:08:56;;;;;;;4.60;2.50;;;;;;;;;;5076026;28;20024;-71
2023/08/15 02:11:23;;;;;;;2.90;2.53;;;;;;;;;;5055673;28;20020;-71
2023/08/15 02:13:49;;;;;;;4.40;2.17;;;;;;;;;;5059779;28;20024;-72
2023/08/15 02:16:16;;;;;;;6.40;2.38;;;;;;;;;;5059383;28;20029;-72
2023/08/15 02:18:43;;;;;;;5.60;2.50;;;;;;;;;;5058971;28;21224;-72
2023/08/15 02:21:10;;;;;;;4.28;2.47;;;;;;;;;;5061410;28;20047;-71
2023/08/15 02:23:36;;;;;;;16.63;2.92;;;;;;;;;;5061606;28;20024;-72
2023/08/15 02:26:02;;;;;;;5.75;2.70;;;;;;;;;;5062860;28;20410;-71
2023/08/15 02:28:31;;;;;;;3.38;2.42;;;;;;;;;;5056953;28;20056;-71
2023/08/15 02:30:57;;;;;;;4.93;2.70;;;;;;;;;;5063856;28;20031;-71
2023/08/15 02:33:23;;;;;;;4.90;3.38;;;;;;;;;;5055178;28;20451;-72
2023/08/15 02:35:52;;;;;;;3.67;2.40;;;;;;;;;;5050680;28;20051;-72
2023/08/15 02:38:18;;;;;;;6.63;4.00;;;;;;;;;;5064901;28;20028;-72
2023/08/15 02:40:44;;;;;;;4.60;2.90;;;;;;;;;;5053497;28;20038;-72
2023/08/15 02:43:10;;;;;;;4.50;2.83;;;;;;;;;;5059041;28;20313;-72
2023/08/15 02:45:36;;;;;;;5.03;3.10;;;;;;;;;;5063612;28;20468;-72
2023/08/15 02:48:02;;;;;;;4.00;2.78;;;;;;;;;;5061290;28;20036;-72
2023/08/15 02:50:28;;;;;;;3.53;2.63;;;;;;;;;;5056924;28;20033;-72
2023/08/15 02:52:55;;;;;;;4.50;2.63;;;;;;;;;;5058862;28;20020;-73
2023/08/15 02:55:21;;;;;;;3.25;2.70;;;;;;;;;;5053723;28;20033;-72
2023/08/15 02:57:47;;;;;;;4.63;3.08;;;;;;;;;;5062497;28;20030;-72
2023/08/15 03:00:13;;;;;;;4.32;2.65;;;;;;;;;;5052330;28;20025;-72
2023/08/15 03:02:40;;;;;;;7.75;4.47;;;;;;;;;;5050046;28;20055;-72
2023/08/15 03:05:07;;;;;;;4.15;2.70;;;;;;;;;;5055069;28;20017;-72
2023/08/15 03:07:33;;;;;;;3.75;3.13;;;;;;;;;;5057599;28;20431;-72
2023/08/15 03:09:59;;;;;;;4.35;3.17;;;;;;;;;;5066432;28;20479;-72
2023/08/15 03:12:25;;;;;;;6.55;2.83;;;;;;;;;;5045655;28;20029;-72
2023/08/15 03:14:51;;;;;;;3.95;2.67;;;;;;;;;;5064617;28;20032;-72
2023/08/15 03:17:19;;;;;;;6.30;3.45;;;;;;;;;;5062214;28;20440;-72
2023/08/15 03:19:45;;;;;;;6.13;3.10;;;;;;;;;;5063400;28;20479;-72
2023/08/15 03:22:11;;;;;;;5.30;2.78;;;;;;;;;;5066241;28;20108;-72
2023/08/15 03:24:37;;;;;;;4.28;2.60;;;;;;;;;;5066352;28;20861;-72
2023/08/15 03:27:03;;;;;;;5.93;3.17;;;;;;;;;;5052794;28;20025;-72
2023/08/15 03:29:29;;;;;;;4.63;2.63;;;;;;;;;;5060965;28;20111;-72
2023/08/15 03:31:57;;;;;;;4.25;2.60;;;;;;;;;;5060764;28;20034;-72
2023/08/15 03:34:24;;;;;;;6.93;3.53;;;;;;;;;;5066249;28;20658;-71
2023/08/15 03:36:50;;;;;;;5.60;3.00;;;;;;;;;;5053793;28;20082;-72
2023/08/15 03:39:16;;;;;;;6.60;3.90;;;;;;;;;;5053891;28;20078;-72
2023/08/15 03:41:42;;;;;;;3.55;2.80;;;;;;;;;;5067628;28;20031;-71
2023/08/15 03:44:08;;;;;;;7.82;3.25;;;;;;;;;;5061280;28;20101;-72
2023/08/15 03:46:34;;;;;;;3.00;2.70;;;;;;;;;;5066081;28;20507;-72
2023/08/15 03:49:00;;;;;;;4.85;2.90;;;;;;;;;;5069400;28;20054;-72
2023/08/15 03:51:26;;;;;;;4.93;2.50;;;;;;;;;;5058880;28;20024;-72
2023/08/15 03:53:52;;;;;;;3.92;2.90;;;;;;;;;;5056933;28;20126;-72
2023/08/15 03:56:18;;;;;;;5.13;2.72;;;;;;;;;;5066387;28;20599;-72
2023/08/15 03:58:45;;;;;;;3.28;2.97;;;;;;;;;;5065126;28;20028;-72
2023/08/15 04:01:13;;;;;;;4.22;2.80;;;;;;;;;;5066045;28;20111;-72
2023/08/15 04:03:39;;;;;;;4.53;2.60;;;;;;;;;;5066302;28;20031;-72
2023/08/15 04:06:05;;;;;;;5.82;3.00;;;;;;;;;;5063269;28;20031;-72
2023/08/15 04:08:31;;;;;;;4.72;2.88;;;;;;;;;;5048881;28;20925;-72
2023/08/15 04:10:57;;;;;;;6.90;2.80;;;;;;;;;;5055475;28;20125;-72
2023/08/15 04:13:23;;;;;;;4.13;2.80;;;;;;;;;;5055941;28;20325;-72
2023/08/15 04:15:50;;;;;;;5.43;3.40;;;;;;;;;;5061192;28;20043;-72
2023/08/15 04:18:16;;;;;;;3.42;2.60;;;;;;;;;;5054472;28;20021;-72
2023/08/15 04:20:43;;;;;;;3.90;2.80;;;;;;;;;;5065312;28;20044;-72
2023/08/15 04:23:09;;;;;;;4.07;2.67;;;;;;;;;;5062821;28;20023;-72
2023/08/15 04:25:36;;;;;;;3.40;2.40;;;;;;;;;;5066855;28;20025;-72
2023/08/15 04:28:02;;;;;;;4.43;2.50;;;;;;;;;;5065291;28;20408;-72
2023/08/15 04:30:32;;;;;;;4.05;2.47;;;;;;;;;;5057310;28;20128;-72
2023/08/15 04:33:01;;;;;;;3.88;2.60;;;;;;;;;;5070352;28;20027;-72
2023/08/15 04:35:28;;;;;;;8.52;2.92;;;;;;;;;;5075877;28;20053;-72
2023/08/15 04:37:54;;;;;;;3.50;2.50;;;;;;;;;;5070973;28;20501;-72
2023/08/15 04:40:34;;;;;;;4.35;2.75;;;;;;;;;;5063713;28;20032;-72
2023/08/15 04:43:01;;;;;;;2.95;2.60;;;;;;;;;;5075764;28;20028;-72
2023/08/15 04:45:27;;;;;;;9.85;4.35;;;;;;;;;;5071622;28;20052;-72
2023/08/15 04:47:53;;;;;;;6.40;3.10;;;;;;;;;;5062148;28;20090;-72
2023/08/15 04:50:19;;;;;;;6.75;3.00;;;;;;;;;;5054963;28;20048;-72
2023/08/15 04:52:45;;;;;;;4.53;2.90;;;;;;;;;;5058931;28;20435;-72
2023/08/15 04:55:13;;;;;;;6.55;3.05;;;;;;;;;;5061787;28;20149;-72
2023/08/15 04:57:39;;;;;;;5.22;2.65;;;;;;;;;;5056502;28;20110;-72
2023/08/15 05:00:08;;;;;;;5.10;2.40;;;;;;;;;;5057106;28;20477;-72
2023/08/15 05:02:35;;;;;;;4.88;2.65;;;;;;;;;;5052282;28;20029;-72
2023/08/15 05:05:11;;;;;;;4.22;2.63;;;;;;;;;;5052269;28;20043;-72
2023/08/15 05:07:37;;;;;;;6.65;2.40;;;;;;;;;;5050293;28;20028;-72
2023/08/15 05:10:04;;;;;;;4.90;2.60;;;;;;;;;;5050832;28;20040;-72
2023/08/15 05:12:30;;;;;;;4.00;2.60;;;;;;;;;;5051959;28;20088;-72
2023/08/15 05:14:56;;;;;;;2.67;2.30;;;;;;;;;;5052151;28;20064;-72
2023/08/15 05:17:22;;;;;;;4.22;2.42;;;;;;;;;;5051913;28;20043;-72
2023/08/15 05:19:48;;;;;;;7.82;2.95;;;;;;;;;;5054730;28;20021;-72
2023/08/15 05:22:14;;;;;;;3.63;2.10;;;;;;;;;;5054577;28;20029;-72
2023/08/15 05:24:40;;;;;;;3.97;2.90;;;;;;;;;;5067590;28;20530;-71
2023/08/15 05:27:07;;;;;;;2.55;2.20;;;;;;;;;;5049836;28;20098;-72
2023/08/15 05:29:33;;;;;;;2.65;2.20;;;;;;;;;;5050423;28;20087;-71
2023/08/15 05:31:59;;;;;;;2.83;2.10;;;;;;;;;;5050190;28;20388;-71
2023/08/15 05:34:25;;;;;;;2.55;2.13;;;;;;;;;;5054858;28;20435;-72
2023/08/15 05:36:51;;;;;;;5.18;2.50;;;;;;;;;;5066033;28;20448;-72
2023/08/15 05:39:17;;;;;;;5.15;2.22;;;;;;;;;;5049536;28;20075;-71
2023/08/15 05:41:43;;;;;;;4.60;2.58;;;;;;;;;;5052738;28;20085;-72
2023/08/15 05:44:09;;;;;;;4.07;2.00;;;;;;;;;;5056426;28;20475;-72
2023/08/15 05:46:35;;;;;;;4.20;2.63;;;;;;;;;;5058145;28;20362;-72
2023/08/15 05:49:01;;;;;;;4.07;2.20;;;;;;;;;;5049893;28;20032;-72
2023/08/15 05:51:27;;;;;;;3.15;2.20;;;;;;;;;;5057345;28;20036;-72
2023/08/15 05:53:54;;;;;;;3.38;2.25;;;;;;;;;;5057878;28;20032;-71
2023/08/15 05:56:20;;;;;;;3.33;2.15;;;;;;;;;;5052095;28;20033;-71
2023/08/15 05:58:46;;;;;;;4.30;2.42;;;;;;;;;;5068014;28;20051;-71
2023/08/15 06:01:12;;;;;;;4.78;2.30;;;;;;;;;;5054226;28;20055;-72
2023/08/15 06:03:38;;;;;;;3.15;2.50;;;;;;;;;;5051507;28;20504;-71
2023/08/15 06:06:04;;;;;;;3.67;2.20;;;;;;;;;;5061110;28;20032;-71
2023/08/15 06:08:30;;;;;;;4.35;2.50;;;;;;;;;;5055895;28;20127;-71
2023/08/15 06:10:57;;;;;;;3.42;2.38;;;;;;;;;;5054599;28;20021;-72
2023/08/15 06:13:23;;;;;;;2.53;2.30;;;;;;;;;;5060539;28;20025;-71
2023/08/15 06:15:49;;;;;;;5.82;2.60;;;;;;;;;;5056139;28;20070;-72
2023/08/15 06:18:15;;;;;;;4.50;2.30;;;;;;;;;;5057495;28;20579;-71
2023/08/15 06:20:41;;;;;;;3.75;2.30;;;;;;;;;;5058445;28;20029;-71
2023/08/15 06:23:07;;;;;;;4.15;2.10;;;;;;;;;;5058370;28;20051;-71
2023/08/15 06:25:34;;;;;;;4.90;2.95;;;;;;;;;;5055281;28;20040;-71
2023/08/15 06:28:00;;;;;;;3.70;2.28;;;;;;;;;;5055791;28;20035;-72
2023/08/15 06:30:26;;;;;;;2.90;2.08;;;;;;;;;;5055392;28;20078;-71
2023/08/15 06:32:52;;;;;;;3.95;2.22;;;;;;;;;;5056098;28;20021;-71
2023/08/15 06:35:18;;;;;;;3.88;2.20;;;;;;;;;;5051371;28;20048;-72
2023/08/15 06:37:45;;;;;;;6.15;2.38;;;;;;;;;;5052434;28;20032;-72
2023/08/15 06:40:11;;;;;;;2.80;2.45;;;;;;;;;;5066181;28;20098;-72
2023/08/15 06:42:37;;;;;;;3.30;2.20;;;;;;;;;;5059806;28;20100;-72
2023/08/15 06:45:13;;;;;;;4.45;1.90;;;;;;;;;;5048589;28;20555;-72
2023/08/15 06:47:39;;;;;;;3.38;2.58;;;;;;;;;;5056744;28;20508;-72
2023/08/15 06:50:06;;;;;;;3.92;2.30;;;;;;;;;;5051797;28;20094;-72
2023/08/15 06:52:32;;;;;;;2.13;1.92;;;;;;;;;;5057839;28;20039;-71
2023/08/15 06:54:58;;;;;;;5.40;2.35;;;;;;;;;;5057711;28;20314;-72
2023/08/15 06:57:27;;;;;;;3.15;2.63;;;;;;;;;;5055634;28;20037;-71
2023/08/15 06:59:53;;;;;;;6.35;2.40;;;;;;;;;;5049662;28;20043;-71
2023/08/15 07:02:19;;;;;;;3.45;2.13;;;;;;;;;;5053730;28;20467;-69
2023/08/15 07:04:48;;;;;;;4.30;2.47;;;;;;;;;;5055583;28;20100;-72
2023/08/15 07:07:14;;;;;;;3.90;2.35;;;;;;;;;;5058198;28;20020;-71
2023/08/15 07:09:40;;;;;;;3.70;2.28;;;;;;;;;;5056210;28;20039;-72
2023/08/15 07:12:09;;;;;;;4.95;2.83;;;;;;;;;;5059613;28;20017;-72
2023/08/15 07:14:36;;;;;;;4.60;3.45;;;;;;;;;;5069954;28;20059;-71
2023/08/15 07:17:02;;;;;;;7.45;4.15;;;;;;;;;;5073451;28;20453;-71
2023/08/15 07:19:28;;;;;;;4.43;2.63;;;;;;;;;;5058601;28;20032;-71
2023/08/15 07:21:57;;;;;;;3.50;2.83;;;;;;;;;;5074142;28;20107;-72
2023/08/15 07:24:23;;;;;;;4.53;3.75;;;;;;;;;;5063151;28;20083;-72
2023/08/15 07:26:49;;;;;;;4.45;3.05;;;;;;;;;;5052417;28;20028;-71
2023/08/15 07:29:15;;;;;;;5.13;3.08;;;;;;;;;;5054680;28;20037;-73
2023/08/15 07:31:42;;;;;;;6.05;3.47;;;;;;;;;;5060896;28;20020;-74
2023/08/15 07:34:08;;;;;;;6.75;3.08;;;;;;;;;;5057401;28;20082;-72
2023/08/15 07:36:34;;;;;;;5.82;3.65;;;;;;;;;;5058849;28;20398;-72
2023/08/15 07:39:01;;;;;;;6.05;4.05;;;;;;;;;;5057488;28;20237;-72
2023/08/15 07:41:27;;;;;;;6.65;3.72;;;;;;;;;;5056633;28;20041;-72
2023/08/15 07:43:53;;;;;;;4.38;3.65;;;;;;;;;;5059345;28;20013;-72
2023/08/15 07:46:19;;;;;;;6.22;3.67;;;;;;;;;;5062295;28;20384;-73
2023/08/15 07:48:46;;;;;;;5.10;3.80;;;;;;;;;;5055952;28;20033;-73
2023/08/15 07:51:12;;;;;;;8.57;3.97;;;;;;;;;;5060866;28;20183;-72
2023/08/15 07:53:38;;;;;;;5.30;3.75;;;;;;;;;;5053280;28;20028;-72
2023/08/15 07:56:04;;;;;;;4.65;3.00;;;;;;;;;;5060032;28;20033;-73
2023/08/15 07:58:33;;;;;;;7.40;2.83;;;;;;;;;;5050145;28;20034;-72
2023/08/15 08:00:59;;;;;;;5.28;2.60;;;;;;;;;;5048652;28;20362;-72
2023/08/15 08:03:25;;;;;;;5.72;2.85;;;;;;;;;;5059600;28;20036;-72
2023/08/15 08:05:51;;;;;;;6.80;3.10;;;;;;;;;;5057008;28;20441;-72
2023/08/15 08:08:18;;;;;;;3.90;2.47;;;;;;;;;;5069251;28;20064;-72
2023/08/15 08:10:44;;;;;;;4.15;2.63;;;;;;;;;;5049552;28;20033;-72
2023/08/15 08:13:12;;;;;;;4.35;3.35;;;;;;;;;;5050460;28;20518;-72
2023/08/15 08:15:38;;;;;;;4.22;2.60;;;;;;;;;;5056571;28;20494;-72
2023/08/15 08:18:05;;;;;;;5.93;2.70;;;;;;;;;;5062454;28;20609;-72
2023/08/15 08:20:32;;;;;;;4.25;3.70;;;;;;;;;;5069109;28;20514;-72
2023/08/15 08:22:58;;;;;;;4.55;2.97;;;;;;;;;;5057983;28;20025;-72
2023/08/15 08:25:24;;;;;;;5.53;2.70;;;;;;;;;;5061020;28;20107;-72
2023/08/15 08:27:50;;;;;;;5.35;2.80;;;;;;;;;;5062261;28;20039;-72
2023/08/15 08:30:17;;;;;;;5.53;3.13;;;;;;;;;;5063987;28;20034;-72
2023/08/15 08:32:44;;;;;;;4.43;2.33;;;;;;;;;;5062028;28;20029;-72
2023/08/15 08:35:10;;;;;;;4.43;2.30;;;;;;;;;;5057106;28;20047;-72
2023/08/15 08:37:37;;;;;;;2.95;2.65;;;;;;;;;;5053949;28;20029;-72
2023/08/15 08:40:04;;;;;;;4.57;2.60;;;;;;;;;;5064006;28;20034;-72
2023/08/15 08:42:31;;;;;;;2.58;2.15;;;;;;;;;;5057087;28;20328;-72
2023/08/15 08:44:57;;;;;;;4.95;2.50;;;;;;;;;;5056794;28;20516;-72
2023/08/15 08:47:28;;;;;;;4.45;2.38;;;;;;;;;;5058007;28;20486;-72
2023/08/15 08:49:57;;;;;;;4.38;1.98;;;;;;;;;;5058375;28;20449;-71
2023/08/15 08:52:24;;;;;;;3.60;2.38;;;;;;;;;;5063574;28;20024;-72
2023/08/15 08:54:50;;;;;;;6.72;2.80;;;;;;;;;;5066669;28;20048;-72
2023/08/15 08:57:20;;;;;;;3.47;2.20;;;;;;;;;;5059868;28;20052;-71
2023/08/15 08:59:47;;;;;;;3.03;2.65;;;;;;;;;;5065736;28;20053;-72
2023/08/15 09:02:14;;;;;;;3.53;2.45;;;;;;;;;;5062751;28;20483;-72
2023/08/15 09:04:41;;;;;;;4.28;2.67;;;;;;;;;;5062963;28;20124;-72
2023/08/15 09:07:07;;;;;;;3.47;2.42;;;;;;;;;;5061564;28;20028;-72
2023/08/15 09:09:33;;;;;;;4.95;2.53;;;;;;;;;;5062264;28;20437;-72
2023/08/15 09:11:59;;;;;;;3.78;2.20;;;;;;;;;;5059408;28;20346;-72
2023/08/15 09:14:25;;;;;;;3.00;2.30;;;;;;;;;;5053034;28;20041;-72
2023/08/15 09:16:52;;;;;;;3.75;2.13;;;;;;;;;;5075009;28;20020;-72
2023/08/15 09:19:18;;;;;;;2.45;2.20;;;;;;;;;;5055608;28;20099;-72
2023/08/15 09:21:44;;;;;;;2.90;2.53;;;;;;;;;;5054283;28;20511;-71
2023/08/15 09:24:11;;;;;;;3.55;2.20;;;;;;;;;;5062019;28;20024;-72
2023/08/15 09:26:38;;;;;;;4.22;2.83;;;;;;;;;;5058172;28;20024;-70
2023/08/15 09:29:05;;;;;;;4.00;2.65;;;;;;;;;;5053850;28;20496;-70
2023/08/15 09:31:33;;;;;;;4.82;2.10;;;;;;;;;;5057909;28;20036;-70
2023/08/15 09:33:59;;;;;;;4.20;3.53;;;;;;;;;;5052068;28;20386;-70
2023/08/15 09:36:27;;;;;;;2.50;2.13;;;;;;;;;;5057690;28;20182;-70
2023/08/15 09:38:56;;;;;;;3.13;2.42;;;;;;;;;;5063482;28;20032;-70
2023/08/15 09:41:24;;;;;;;4.82;2.53;;;;;;;;;;5051482;28;20021;-69
2023/08/15 09:43:51;;;;;;;2.88;2.35;;;;;;;;;;5055335;28;20493;-70
2023/08/15 09:46:20;;;;;;;3.67;2.25;;;;;;;;;;5059772;28;20025;-70
2023/08/15 09:48:47;;;;;;;2.60;2.20;;;;;;;;;;5057527;28;20039;-73
2023/08/15 09:51:17;;;;;;;2.08;1.95;;;;;;;;;;5057410;28;20081;-71
2023/08/15 09:53:44;;;;;;;3.05;2.70;;;;;;;;;;5057197;28;20033;-70
2023/08/15 09:56:10;;;;;;;3.30;2.25;;;;;;;;;;5056477;28;20033;-70
2023/08/15 09:58:37;;;;;;;2.30;1.67;;;;;;;;;;5051737;28;20029;-72
2023/08/15 10:01:04;;;;;;;3.38;1.88;;;;;;;;;;5053326;28;20029;-73
2023/08/15 10:03:38;;;;;;;2.35;2.15;;;;;;;;;;5057233;28;20028;-70
2023/08/15 10:06:05;;;;;;;2.22;2.03;;;;;;;;;;5049591;28;20021;-71
2023/08/15 10:08:32;;;;;;;2.70;1.75;;;;;;;;;;5055312;28;20029;-71
2023/08/15 10:10:59;;;;;;;1.70;1.60;;;;;;;;;;5052794;28;20032;-70
2023/08/15 10:13:27;;;;;;;4.40;2.05;;;;;;;;;;5057617;28;20036;-71
2023/08/15 10:15:53;;;;;;;4.57;1.90;;;;;;;;;;5059778;28;20032;-71
2023/08/15 10:18:20;;;;;;;2.50;2.00;;;;;;;;;;5057928;28;20436;-71
2023/08/15 10:20:50;;;;;;;1.92;1.60;;;;;;;;;;5053599;28;20059;-71
2023/08/15 10:23:24;;;;;;;2.53;1.92;;;;;;;;;;5058440;28;20036;-65
2023/08/15 10:25:52;;;;;;;2.08;1.88;;;;;;;;;;5048102;28;20047;-71
2023/08/15 10:28:19;;;;;;;4.38;2.50;;;;;;;;;;5055064;28;20476;-70
2023/08/15 10:30:46;;;;;;;2.72;2.22;;;;;;;;;;5056305;28;20033;-71
2023/08/15 10:33:12;;;;;;;1.63;1.52;;;;;;;;;;5052190;28;20068;-70
2023/08/15 10:35:43;;;;;;;2.88;1.83;;;;;;;;;;5056226;28;20378;-70
2023/08/15 10:38:16;;;;;;;2.90;1.73;;;;;;;;;;5055340;28;20048;-70
2023/08/15 10:40:44;;;;;;;3.97;1.90;;;;;;;;;;5055897;28;20024;-70
2023/08/15 10:43:11;;;;;;;3.35;1.90;;;;;;;;;;5059162;28;20047;-70
2023/08/15 10:45:43;;;;;;;2.22;1.83;;;;;;;;;;5054515;28;20448;-70
2023/08/15 10:48:10;;;;;;;2.95;1.70;;;;;;;;;;5055857;28;20036;-70
2023/08/15 10:50:36;;;;;;;2.15;1.80;;;;;;;;;;5055370;28;20416;-70
2023/08/15 10:53:04;;;;;;;1.70;1.60;;;;;;;;;;5055976;28;20028;-70
2023/08/15 10:55:31;;;;;;;1.95;1.75;;;;;;;;;;5046858;28;20503;-67
2023/08/15 10:57:58;;;;;;;1.70;1.60;;;;;;;;;;5046306;28;20478;-69
2023/08/15 11:00:24;;;;;;;3.53;1.60;;;;;;;;;;5053490;28;20032;-72
2023/08/15 11:02:51;;;;;;;2.75;1.60;;;;;;;;;;5053701;28;20029;-70
2023/08/15 11:05:21;;;;;;;2.70;1.80;;;;;;;;;;5049380;28;20033;-68
2023/08/15 11:07:47;;;;;;;2.40;1.90;;;;;;;;;;5050914;28;20512;-69
2023/08/15 11:10:13;;;;;;;3.60;1.65;;;;;;;;;;5051320;28;20028;-69
2023/08/15 11:12:46;;;;;;;4.57;2.20;;;;;;;;;;5054134;28;20028;-68
2023/08/15 11:15:12;;;;;;;1.80;1.70;;;;;;;;;;5055192;28;20584;-69
2023/08/15 11:17:38;;;;;;;2.42;1.83;;;;;;;;;;5051882;28;20510;-68
2023/08/15 11:20:05;;;;;;;4.57;2.70;;;;;;;;;;5048925;28;20016;-69
2023/08/15 11:22:32;;;;;;;2.30;1.65;;;;;;;;;;5049012;28;20467;-68
2023/08/15 11:24:58;;;;;;;3.22;1.90;;;;;;;;;;5053488;28;20575;-69
2023/08/15 11:27:24;;;;;;;2.95;2.00;;;;;;;;;;5051885;28;20032;-70
2023/08/15 11:29:57;;;;;;;3.42;1.90;;;;;;;;;;5051921;28;20020;-67
2023/08/15 11:32:26;;;;;;;2.80;1.92;;;;;;;;;;5045599;28;20033;-69
2023/08/15 11:34:52;;;;;;;2.30;1.90;;;;;;;;;;5045203;28;20040;-69
2023/08/15 11:37:18;;;;;;;2.33;1.65;;;;;;;;;;5055741;28;20036;-70
2023/08/15 11:39:54;;;;;;;3.08;1.70;;;;;;;;;;5055433;28;20381;-69
2023/08/15 11:42:21;;;;;;;1.65;1.55;;;;;;;;;;5057764;28;20023;-70
2023/08/15 11:44:47;;;;;;;2.30;1.60;;;;;;;;;;5054046;28;20070;-69
2023/08/15 11:47:14;;;;;;;2.92;1.85;;;;;;;;;;5053816;28;20384;-70
2023/08/15 11:49:41;;;;;;;2.83;1.80;;;;;;;;;;5067655;28;20103;-69
2023/08/15 11:52:07;;;;;;;2.63;1.80;;;;;;;;;;5052657;28;20031;-69
2023/08/15 11:54:33;;;;;;;2.05;1.60;;;;;;;;;;5051950;28;20317;-69
2023/08/15 11:56:59;;;;;;;3.15;1.52;;;;;;;;;;5058439;28;20024;-69
2023/08/15 11:59:25;;;;;;;1.98;1.73;;;;;;;;;;5057213;28;20056;-69
2023/08/15 12:01:51;;;;;;;2.17;1.73;;;;;;;;;;5057385;28;20583;-68
2023/08/15 12:04:18;;;;;;;3.28;1.88;;;;;;;;;;5055650;28;20017;-71
2023/08/15 12:06:44;;;;;;;2.63;1.77;;;;;;;;;;5072307;28;20028;-67
2023/08/15 12:09:11;;;;;;;1.60;1.50;;;;;;;;;;5061376;28;20469;-72
2023/08/15 12:11:38;;;;;;;3.20;1.63;;;;;;;;;;5058999;28;20040;-72
2023/08/15 12:14:04;;;;;;;2.00;1.80;;;;;;;;;;5063874;28;20604;-71
2023/08/15 12:16:30;;;;;;;2.08;1.80;;;;;;;;;;5062714;28;20032;-71
2023/08/15 12:18:57;;;;;;;2.78;1.77;;;;;;;;;;5054693;28;20028;-71
2023/08/15 12:21:23;;;;;;;1.80;1.70;;;;;;;;;;5062439;28;20036;-71
2023/08/15 12:23:50;;;;;;;2.97;1.80;;;;;;;;;;5057573;28;21124;-72
2023/08/15 12:26:16;;;;;;;3.25;1.85;;;;;;;;;;5059787;28;20047;-71
2023/08/15 12:28:42;;;;;;;3.05;1.90;;;;;;;;;;5057950;28;20076;-72
2023/08/15 12:31:08;;;;;;;2.67;1.80;;;;;;;;;;5056730;28;20113;-72
2023/08/15 12:33:35;;;;;;;3.10;1.90;;;;;;;;;;5055070;28;20036;-72
2023/08/15 12:36:02;;;;;;;3.92;2.00;;;;;;;;;;5058692;28;20067;-69
2023/08/15 12:38:29;;;;;;;3.88;2.30;;;;;;;;;;5052259;28;20115;-71
2023/08/15 12:40:55;;;;;;;3.35;2.10;;;;;;;;;;5060157;28;20324;-71
2023/08/15 12:43:21;;;;;;;2.70;2.08;;;;;;;;;;5051453;28;20033;-71
2023/08/15 12:45:48;;;;;;;2.33;1.83;;;;;;;;;;5047045;28;20032;-70
2023/08/15 12:48:14;;;;;;;3.47;1.98;;;;;;;;;;5049656;28;20097;-70
2023/08/15 12:50:40;;;;;;;4.05;2.00;;;;;;;;;;5050872;28;20543;-70
2023/08/15 12:53:08;;;;;;;6.95;2.28;;;;;;;;;;5052359;28;20032;-72
2023/08/15 12:55:34;;;;;;;2.65;1.92;;;;;;;;;;5055046;28;20502;-69
2023/08/15 12:58:02;;;;;;;2.60;1.95;;;;;;;;;;5058639;28;20585;-71
2023/08/15 13:00:29;;;;;;;3.03;1.77;;;;;;;;;;5057708;28;20047;-71
2023/08/15 13:02:55;;;;;;;3.08;1.90;;;;;;;;;;5052439;28;20020;-70
2023/08/15 13:05:21;;;;;;;2.50;2.00;;;;;;;;;;5058366;28;20491;-73
2023/08/15 13:07:48;;;;;;;3.85;2.00;;;;;;;;;;5053831;28;20171;-71
2023/08/15 13:10:14;;;;;;;4.18;2.15;;;;;;;;;;5054547;28;20494;-70
2023/08/15 13:12:40;;;;;;;3.45;2.10;;;;;;;;;;5051294;28;20097;-69
2023/08/15 13:15:06;;;;;;;4.72;2.00;;;;;;;;;;5049957;28;20423;-69
2023/08/15 13:17:32;;;;;;;2.15;1.90;;;;;;;;;;5051815;28;20364;-70
2023/08/15 13:19:59;;;;;;;4.95;2.00;;;;;;;;;;5052977;28;20111;-72
2023/08/15 13:22:25;;;;;;;3.55;1.88;;;;;;;;;;5053926;28;20059;-70
2023/08/15 13:24:51;;;;;;;3.40;1.85;;;;;;;;;;5056530;28;20039;-71
2023/08/15 13:27:17;;;;;;;3.13;1.77;;;;;;;;;;5055234;28;20499;-72
2023/08/15 13:29:43;;;;;;;2.50;2.00;;;;;;;;;;5057867;28;20024;-73
2023/08/15 13:32:10;;;;;;;3.47;2.00;;;;;;;;;;5058054;28;20583;-73
2023/08/15 13:34:36;;;;;;;2.92;2.00;;;;;;;;;;5062214;28;20411;-74
2023/08/15 13:37:02;;;;;;;4.28;2.35;;;;;;;;;;5052541;28;20437;-71
2023/08/15 13:39:28;;;;;;;2.40;1.80;;;;;;;;;;5060211;28;20396;-70
2023/08/15 13:41:55;;;;;;;3.75;2.10;;;;;;;;;;5055183;28;20542;-70
2023/08/15 13:44:21;;;;;;;3.40;1.73;;;;;;;;;;5054210;28;20124;-70
2023/08/15 13:46:47;;;;;;;4.03;2.10;;;;;;;;;;5057899;28;20586;-70
2023/08/15 13:49:13;;;;;;;2.17;1.90;;;;;;;;;;5058517;28;20036;-70
2023/08/15 13:51:39;;;;;;;2.92;2.10;;;;;;;;;;5054513;28;20028;-71
2023/08/15 13:54:06;;;;;;;3.17;1.90;;;;;;;;;;5052519;28;20059;-71
2023/08/15 13:56:32;;;;;;;2.53;2.00;;;;;;;;;;5056128;28;20039;-71
2023/08/15 13:58:58;;;;;;;2.63;1.83;;;;;;;;;;5055233;28;20036;-70
2023/08/15 14:01:24;;;;;;;3.50;1.95;;;;;;;;;;5057852;28;20472;-73
2023/08/15 14:03:50;;;;;;;3.60;2.15;;;;;;;;;;5057567;28;20052;-68
2023/08/15 14:06:17;;;;;;;3.47;1.77;;;;;;;;;;5052237;28;20043;-69
2023/08/15 14:08:43;;;;;;;3.25;1.90;;;;;;;;;;5050039;28;20490;-70
2023/08/15 14:11:09;;;;;;;3.13;2.08;;;;;;;;;;5052048;28;20024;-70
2023/08/15 14:13:36;;;;;;;2.05;1.58;;;;;;;;;;5051436;28;20029;-71
2023/08/15 14:16:02;;;;;;;2.20;1.45;;;;;;;;;;5053896;28;20020;-70
2023/08/15 14:18:28;;;;;;;1.90;1.70;;;;;;;;;;5052160;28;20439;-71
2023/08/15 14:20:54;;;;;;;3.65;1.70;;;;;;;;;;5052839;28;20480;-69
2023/08/15 14:23:20;;;;;;;3.03;1.60;;;;;;;;;;5053633;28;20028;-72
2023/08/15 14:25:46;;;;;;;2.83;1.63;;;;;;;;;;5052598;28;20032;-73
2023/08/15 14:28:12;;;;;;;1.83;1.60;;;;;;;;;;5058709;28;20056;-73
2023/08/15 14:30:39;;;;;;;4.38;2.20;;;;;;;;;;5050272;28;20028;-71
2023/08/15 14:33:06;;;;;;;7.28;3.05;;;;;;;;;;5059432;28;20504;-71
2023/08/15 14:35:32;;;;;;;2.47;1.50;;;;;;;;;;5056016;28;20044;-71
2023/08/15 14:37:58;;;;;;;1.95;1.55;;;;;;;;;;5054056;28;20036;-71
2023/08/15 14:40:26;;;;;;;2.30;1.80;;;;;;;;;;5051737;28;20055;-71